Friday, May 25, 2018, 8:48 AM EDT
Back to Local

KMVY, Vineyard Haven Marthas Vin

Location: Vineyard Haven, MA, United States Lat: 41.4
Local Time: 8:48 AM EDT (12:48 GMT) Lon: -70.617
Time Zone: US/Eastern Elev: 68 ft

Show me the last for .
Show Coded

Time T Td Feel RH Dir Speed Gust Alt SLP Vis Weather Sky Remarks
2018-05-25 07:53 64 53 - 67 230° 7 - 30.00 30.00 10 CLR 6-hr Min Temp (8am): 53.1°F
6-hr Max Temp (8am): 64.0°F
2018-05-25 06:53 58 53 - 83 240° 7 - 30.01 30.01 10 CLR None
2018-05-25 05:53 55 52 - 89 220° 8 - 30.01 30.01 10 CLR None
2018-05-25 04:53 54 54 - 100 220° 10 - 30.02 30.02 9 FEW004 None
2018-05-25 04:18 53 53 - 100 220° 12 - 30.03 - 3 BR OVC002 None
2018-05-25 04:11 53 53 - 100 210° 12 - 30.03 - 1 BR OVC002 None
2018-05-25 04:04 53 53 - 100 220° 12 - 30.03 - 2 BR OVC002 None
2018-05-25 03:53 54 54 - 100 220° 15 - 30.04 30.03 1 BR OVC002 None
2018-05-25 03:28 54 54 - 100 220° 12 - 30.05 - 1 BR OVC002 None
2018-05-25 02:53 53 53 - 100 230° 13 - 30.06 30.06 0 BR VV002 None
2018-05-25 02:45 53 53 - 100 230° 10 - 30.06 - 0 FG VV002 None
2018-05-25 02:35 53 53 - 100 220° 12 - 30.07 - 1 BR OVC002 None
2018-05-25 01:53 52 51 - 96 220° 9 - 30.08 30.08 5 BR OVC003 6-hr Min Temp (2am): 51.1°F
6-hr Max Temp (2am): 52.0°F
2018-05-25 00:53 51 51 - 100 220° 8 - 30.10 30.10 7 OVC002 24-hr Min Temp (1am): 51.1°F
24-hr Max Temp (1am): 64.0°F
2018-05-25 00:31 51 51 - 100 210° 13 - 30.10 - 3 BR OVC002 None
2018-05-25 00:19 51 51 - 100 220° 10 - 30.10 - 2 BR OVC002 None
2018-05-24 23:53 51 51 - 100 220° 13 18 30.11 30.11 3 BR OVC002 None
2018-05-24 23:31 51 51 - 100 210° 10 - 30.11 - 2 BR OVC002 None
2018-05-24 22:53 51 51 - 100 200° 10 - 30.12 30.12 1 BR OVC002 None
2018-05-24 22:35 51 50 - 96 200° 13 - 30.12 - 1 BR OVC003 None
2018-05-24 22:20 52 51 - 96 210° 10 - 30.13 - 5 BR OVC004 None
2018-05-24 21:53 52 51 - 96 200° 15 - 30.13 30.13 10 OVC006 None
2018-05-24 21:33 52 50 - 92 190° 12 - 30.14 - 10 BKN007 None
2018-05-24 21:20 51 49 - 92 200° 9 - 30.14 - 10 FEW007 None
2018-05-24 20:53 51 49 - 92 190° 10 - 30.13 30.13 10 CLR None
2018-05-24 19:53 52 47 - 82 180° 9 - 30.13 30.12 10 CLR 6-hr Min Temp (8pm): 52.0°F
6-hr Max Temp (8pm): 62.1°F
2018-05-24 18:53 54 46 - 74 170° 10 - 30.13 30.12 10 CLR None
2018-05-24 17:53 56 45 - 66 160° 16 - 30.11 30.11 10 CLR None
2018-05-24 16:53 58 43 - 57 160° 14 - 30.13 30.13 10 CLR None
2018-05-24 15:53 61 43 - 51 150° 14 - 30.12 30.12 10 CLR None
2018-05-24 14:53 61 43 - 51 120° 15 - 30.12 30.12 10 CLR None
2018-05-24 13:53 62 47 - 57 140° 15 - 30.12 30.12 10 CLR 6-hr Min Temp (2pm): 55.0°F
6-hr Max Temp (2pm): 64.0°F
2018-05-24 12:53 63 49 - 60 150° 9 16 30.13 30.13 10 CLR None
2018-05-24 11:53 62 49 - 62 40° 7 - 30.13 30.13 10 CLR None
2018-05-24 10:53 59 49 - 69 60° 10 - 30.13 30.12 10 CLR None
2018-05-24 10:09 59 51 - 74 90° 9 - 30.11 - 10 SCT014 None
2018-05-24 09:53 59 51 - 74 40° 6 - 30.11 30.11 10 BKN012 None
2018-05-24 09:31 58 51 - 77 60° 12 - 30.10 - 10 OVC011 None
2018-05-24 09:06 56 54 - 93 60° 9 - 30.10 - 10 BKN005 OVC009 None
2018-05-24 08:53 56 55 - 96 40° 8 - 30.10 30.10 10 OVC004 None

Support USWX by starting your Amazon purchase here.